sensor_id;sensor_type;location;lat;lon;timestamp;P1;durP1;ratioP1;P2;durP2;ratioP2
3865;SDS011;1948;53.250;10.412;2023-10-08T00:01:17;3.70;;;3.13;;
3865;SDS011;1948;53.250;10.412;2023-10-08T00:03:48;4.23;;;3.40;;
3865;SDS011;1948;53.250;10.412;2023-10-08T00:06:25;5.43;;;3.20;;
3865;SDS011;1948;53.250;10.412;2023-10-08T00:08:56;10.73;;;3.20;;
3865;SDS011;1948;53.250;10.412;2023-10-08T00:11:26;7.13;;;2.47;;
3865;SDS011;1948;53.250;10.412;2023-10-08T00:13:55;5.70;;;2.87;;
3865;SDS011;1948;53.250;10.412;2023-10-08T00:16:23;5.20;;;2.53;;
3865;SDS011;1948;53.250;10.412;2023-10-08T00:18:50;11.03;;;3.50;;
3865;SDS011;1948;53.250;10.412;2023-10-08T00:21:21;7.83;;;2.13;;
3865;SDS011;1948;53.250;10.412;2023-10-08T00:23:55;3.33;;;2.47;;
3865;SDS011;1948;53.250;10.412;2023-10-08T00:26:26;15.30;;;2.37;;
3865;SDS011;1948;53.250;10.412;2023-10-08T00:28:58;10.83;;;3.00;;
3865;SDS011;1948;53.250;10.412;2023-10-08T00:31:48;7.23;;;2.60;;
3865;SDS011;1948;53.250;10.412;2023-10-08T00:34:16;9.33;;;2.57;;
3865;SDS011;1948;53.250;10.412;2023-10-08T00:36:51;17.60;;;2.63;;
3865;SDS011;1948;53.250;10.412;2023-10-08T00:39:21;10.50;;;2.07;;
3865;SDS011;1948;53.250;10.412;2023-10-08T00:41:53;10.90;;;3.13;;
3865;SDS011;1948;53.250;10.412;2023-10-08T00:44:26;5.03;;;2.60;;
3865;SDS011;1948;53.250;10.412;2023-10-08T00:46:58;13.70;;;3.70;;
3865;SDS011;1948;53.250;10.412;2023-10-08T00:49:33;7.80;;;2.43;;
3865;SDS011;1948;53.250;10.412;2023-10-08T00:52:09;17.67;;;3.47;;
3865;SDS011;1948;53.250;10.412;2023-10-08T00:54:41;8.83;;;2.57;;
3865;SDS011;1948;53.250;10.412;2023-10-08T00:57:19;17.17;;;2.77;;
3865;SDS011;1948;53.250;10.412;2023-10-08T00:59:50;13.37;;;2.83;;
3865;SDS011;1948;53.250;10.412;2023-10-08T01:02:20;5.83;;;2.30;;
3865;SDS011;1948;53.250;10.412;2023-10-08T01:04:54;7.93;;;2.63;;
3865;SDS011;1948;53.250;10.412;2023-10-08T01:07:24;9.13;;;2.70;;
3865;SDS011;1948;53.250;10.412;2023-10-08T01:09:54;12.03;;;2.60;;
3865;SDS011;1948;53.250;10.412;2023-10-08T01:12:26;10.37;;;2.83;;
3865;SDS011;1948;53.250;10.412;2023-10-08T01:14:59;14.27;;;3.10;;
3865;SDS011;1948;53.250;10.412;2023-10-08T01:17:53;18.07;;;3.07;;
3865;SDS011;1948;53.250;10.412;2023-10-08T01:20:27;19.63;;;3.77;;
3865;SDS011;1948;53.250;10.412;2023-10-08T01:23:08;7.60;;;3.17;;
3865;SDS011;1948;53.250;10.412;2023-10-08T01:25:37;9.20;;;3.10;;
3865;SDS011;1948;53.250;10.412;2023-10-08T01:28:08;9.90;;;2.63;;
3865;SDS011;1948;53.250;10.412;2023-10-08T01:30:43;4.90;;;2.80;;
3865;SDS011;1948;53.250;10.412;2023-10-08T01:33:14;20.97;;;3.60;;
3865;SDS011;1948;53.250;10.412;2023-10-08T01:35:43;8.47;;;2.47;;
3865;SDS011;1948;53.250;10.412;2023-10-08T01:38:10;19.23;;;3.03;;
3865;SDS011;1948;53.250;10.412;2023-10-08T01:40:41;6.83;;;2.80;;
3865;SDS011;1948;53.250;10.412;2023-10-08T01:43:08;19.23;;;3.40;;
3865;SDS011;1948;53.250;10.412;2023-10-08T01:45:39;14.17;;;3.77;;
3865;SDS011;1948;53.250;10.412;2023-10-08T01:48:08;11.23;;;3.60;;
3865;SDS011;1948;53.250;10.412;2023-10-08T01:50:41;10.77;;;2.63;;
3865;SDS011;1948;53.250;10.412;2023-10-08T01:53:11;14.37;;;3.37;;
3865;SDS011;1948;53.250;10.412;2023-10-08T01:55:41;9.30;;;2.67;;
3865;SDS011;1948;53.250;10.412;2023-10-08T01:58:16;14.50;;;2.97;;
3865;SDS011;1948;53.250;10.412;2023-10-08T02:00:45;9.60;;;2.40;;
3865;SDS011;1948;53.250;10.412;2023-10-08T02:03:13;13.40;;;3.63;;
3865;SDS011;1948;53.250;10.412;2023-10-08T02:05:42;9.80;;;3.00;;
3865;SDS011;1948;53.250;10.412;2023-10-08T02:08:11;9.83;;;3.00;;
3865;SDS011;1948;53.250;10.412;2023-10-08T02:10:40;10.90;;;2.60;;
3865;SDS011;1948;53.250;10.412;2023-10-08T02:13:13;24.73;;;3.07;;
3865;SDS011;1948;53.250;10.412;2023-10-08T02:16:00;12.97;;;3.30;;
3865;SDS011;1948;53.250;10.412;2023-10-08T02:18:28;5.97;;;2.77;;
3865;SDS011;1948;53.250;10.412;2023-10-08T02:21:00;8.23;;;2.87;;
3865;SDS011;1948;53.250;10.412;2023-10-08T02:23:27;24.97;;;3.93;;
3865;SDS011;1948;53.250;10.412;2023-10-08T02:25:58;11.10;;;3.20;;
3865;SDS011;1948;53.250;10.412;2023-10-08T02:28:25;6.67;;;2.87;;
3865;SDS011;1948;53.250;10.412;2023-10-08T02:30:53;7.87;;;2.57;;
3865;SDS011;1948;53.250;10.412;2023-10-08T02:33:20;17.03;;;3.63;;
3865;SDS011;1948;53.250;10.412;2023-10-08T02:35:47;14.90;;;2.53;;
3865;SDS011;1948;53.250;10.412;2023-10-08T02:38:18;10.40;;;2.63;;
3865;SDS011;1948;53.250;10.412;2023-10-08T02:40:49;5.10;;;2.40;;
3865;SDS011;1948;53.250;10.412;2023-10-08T02:43:20;5.20;;;2.60;;
3865;SDS011;1948;53.250;10.412;2023-10-08T02:45:50;10.13;;;2.87;;
3865;SDS011;1948;53.250;10.412;2023-10-08T02:48:18;6.93;;;2.50;;
3865;SDS011;1948;53.250;10.412;2023-10-08T02:50:47;16.37;;;2.90;;
3865;SDS011;1948;53.250;10.412;2023-10-08T02:53:14;9.93;;;2.33;;
3865;SDS011;1948;53.250;10.412;2023-10-08T02:55:52;7.30;;;2.40;;
3865;SDS011;1948;53.250;10.412;2023-10-08T02:58:22;4.63;;;2.73;;
3865;SDS011;1948;53.250;10.412;2023-10-08T03:00:54;9.93;;;2.93;;
3865;SDS011;1948;53.250;10.412;2023-10-08T03:03:21;12.27;;;3.03;;
3865;SDS011;1948;53.250;10.412;2023-10-08T03:05:51;7.57;;;2.40;;
3865;SDS011;1948;53.250;10.412;2023-10-08T03:08:19;15.43;;;3.00;;
3865;SDS011;1948;53.250;10.412;2023-10-08T03:10:51;8.77;;;3.30;;
3865;SDS011;1948;53.250;10.412;2023-10-08T03:13:23;12.40;;;2.23;;
3865;SDS011;1948;53.250;10.412;2023-10-08T03:15:55;8.37;;;2.80;;
3865;SDS011;1948;53.250;10.412;2023-10-08T03:18:28;5.50;;;2.60;;
3865;SDS011;1948;53.250;10.412;2023-10-08T03:21:04;10.40;;;3.23;;
3865;SDS011;1948;53.250;10.412;2023-10-08T03:23:50;16.47;;;2.93;;
3865;SDS011;1948;53.250;10.412;2023-10-08T03:26:18;8.27;;;3.00;;
3865;SDS011;1948;53.250;10.412;2023-10-08T03:28:59;6.53;;;2.37;;
3865;SDS011;1948;53.250;10.412;2023-10-08T03:31:34;10.10;;;2.60;;
3865;SDS011;1948;53.250;10.412;2023-10-08T03:34:14;8.27;;;2.37;;
3865;SDS011;1948;53.250;10.412;2023-10-08T03:36:45;20.07;;;2.73;;
3865;SDS011;1948;53.250;10.412;2023-10-08T03:39:16;10.03;;;2.60;;
3865;SDS011;1948;53.250;10.412;2023-10-08T03:41:46;8.57;;;2.70;;
3865;SDS011;1948;53.250;10.412;2023-10-08T03:44:32;11.83;;;2.97;;
3865;SDS011;1948;53.250;10.412;2023-10-08T03:47:04;9.63;;;2.70;;
3865;SDS011;1948;53.250;10.412;2023-10-08T03:49:38;13.07;;;2.40;;
3865;SDS011;1948;53.250;10.412;2023-10-08T03:52:12;11.50;;;2.93;;
3865;SDS011;1948;53.250;10.412;2023-10-08T03:54:39;7.03;;;2.37;;
3865;SDS011;1948;53.250;10.412;2023-10-08T03:57:15;12.33;;;2.33;;
3865;SDS011;1948;53.250;10.412;2023-10-08T03:59:52;19.10;;;2.23;;
3865;SDS011;1948;53.250;10.412;2023-10-08T04:02:25;9.50;;;2.43;;
3865;SDS011;1948;53.250;10.412;2023-10-08T04:05:13;9.57;;;2.80;;
3865;SDS011;1948;53.250;10.412;2023-10-08T04:07:48;12.80;;;2.57;;
3865;SDS011;1948;53.250;10.412;2023-10-08T04:10:27;5.40;;;2.10;;
3865;SDS011;1948;53.250;10.412;2023-10-08T04:13:05;6.73;;;2.43;;
3865;SDS011;1948;53.250;10.412;2023-10-08T04:15:38;7.27;;;1.60;;
3865;SDS011;1948;53.250;10.412;2023-10-08T04:18:08;5.37;;;1.77;;
3865;SDS011;1948;53.250;10.412;2023-10-08T04:20:42;9.30;;;2.17;;
3865;SDS011;1948;53.250;10.412;2023-10-08T04:23:31;6.20;;;2.63;;
3865;SDS011;1948;53.250;10.412;2023-10-08T04:25:59;15.83;;;2.57;;
3865;SDS011;1948;53.250;10.412;2023-10-08T04:28:29;6.07;;;2.23;;
3865;SDS011;1948;53.250;10.412;2023-10-08T04:31:01;10.23;;;2.00;;
3865;SDS011;1948;53.250;10.412;2023-10-08T04:33:44;13.73;;;2.50;;
3865;SDS011;1948;53.250;10.412;2023-10-08T04:36:14;3.23;;;1.87;;
3865;SDS011;1948;53.250;10.412;2023-10-08T04:38:49;3.40;;;2.23;;
3865;SDS011;1948;53.250;10.412;2023-10-08T04:41:21;8.90;;;2.53;;
3865;SDS011;1948;53.250;10.412;2023-10-08T04:43:54;7.50;;;2.40;;
3865;SDS011;1948;53.250;10.412;2023-10-08T04:46:29;7.93;;;2.50;;
3865;SDS011;1948;53.250;10.412;2023-10-08T04:49:05;9.63;;;1.93;;
3865;SDS011;1948;53.250;10.412;2023-10-08T04:51:36;15.03;;;2.33;;
3865;SDS011;1948;53.250;10.412;2023-10-08T04:54:10;17.50;;;2.53;;
3865;SDS011;1948;53.250;10.412;2023-10-08T04:56:44;13.70;;;2.60;;
3865;SDS011;1948;53.250;10.412;2023-10-08T04:59:16;15.60;;;1.53;;
3865;SDS011;1948;53.250;10.412;2023-10-08T05:01:49;8.23;;;2.60;;
3865;SDS011;1948;53.250;10.412;2023-10-08T05:04:34;6.17;;;2.00;;
3865;SDS011;1948;53.250;10.412;2023-10-08T05:07:21;7.20;;;2.10;;
3865;SDS011;1948;53.250;10.412;2023-10-08T05:09:53;4.77;;;2.57;;
3865;SDS011;1948;53.250;10.412;2023-10-08T05:12:32;9.93;;;2.60;;
3865;SDS011;1948;53.250;10.412;2023-10-08T05:15:17;7.93;;;2.27;;
3865;SDS011;1948;53.250;10.412;2023-10-08T05:17:47;5.10;;;1.73;;
3865;SDS011;1948;53.250;10.412;2023-10-08T05:20:18;4.60;;;2.07;;
3865;SDS011;1948;53.250;10.412;2023-10-08T05:22:58;6.10;;;1.80;;
3865;SDS011;1948;53.250;10.412;2023-10-08T05:25:46;9.93;;;1.83;;
3865;SDS011;1948;53.250;10.412;2023-10-08T05:28:36;16.33;;;2.83;;
3865;SDS011;1948;53.250;10.412;2023-10-08T05:31:24;20.33;;;3.03;;
3865;SDS011;1948;53.250;10.412;2023-10-08T05:34:15;6.20;;;2.77;;
3865;SDS011;1948;53.250;10.412;2023-10-08T05:37:05;16.27;;;3.67;;
3865;SDS011;1948;53.250;10.412;2023-10-08T05:39:32;13.57;;;2.87;;
3865;SDS011;1948;53.250;10.412;2023-10-08T05:42:06;5.03;;;2.40;;
3865;SDS011;1948;53.250;10.412;2023-10-08T05:44:46;12.30;;;2.13;;
3865;SDS011;1948;53.250;10.412;2023-10-08T05:47:32;7.33;;;2.43;;
3865;SDS011;1948;53.250;10.412;2023-10-08T05:50:00;6.67;;;1.80;;
3865;SDS011;1948;53.250;10.412;2023-10-08T05:52:44;19.57;;;2.87;;
3865;SDS011;1948;53.250;10.412;2023-10-08T05:55:33;7.40;;;2.73;;
3865;SDS011;1948;53.250;10.412;2023-10-08T05:58:16;4.77;;;1.80;;
3865;SDS011;1948;53.250;10.412;2023-10-08T06:00:48;5.50;;;2.33;;
3865;SDS011;1948;53.250;10.412;2023-10-08T06:03:48;8.20;;;2.10;;
3865;SDS011;1948;53.250;10.412;2023-10-08T06:06:28;5.17;;;2.20;;
3865;SDS011;1948;53.250;10.412;2023-10-08T06:09:04;5.07;;;1.90;;
3865;SDS011;1948;53.250;10.412;2023-10-08T06:11:37;15.20;;;2.40;;
3865;SDS011;1948;53.250;10.412;2023-10-08T06:14:10;8.73;;;2.47;;
3865;SDS011;1948;53.250;10.412;2023-10-08T06:16:54;7.83;;;2.57;;
3865;SDS011;1948;53.250;10.412;2023-10-08T06:19:44;17.27;;;2.50;;
3865;SDS011;1948;53.250;10.412;2023-10-08T06:22:15;6.83;;;1.87;;
3865;SDS011;1948;53.250;10.412;2023-10-08T06:24:42;10.60;;;2.50;;
3865;SDS011;1948;53.250;10.412;2023-10-08T06:27:12;8.37;;;1.97;;
3865;SDS011;1948;53.250;10.412;2023-10-08T06:29:43;12.90;;;2.20;;
3865;SDS011;1948;53.250;10.412;2023-10-08T06:32:13;11.10;;;2.07;;
3865;SDS011;1948;53.250;10.412;2023-10-08T06:34:40;5.20;;;1.83;;
3865;SDS011;1948;53.250;10.412;2023-10-08T06:37:07;12.03;;;2.37;;
3865;SDS011;1948;53.250;10.412;2023-10-08T06:39:44;6.23;;;1.90;;
3865;SDS011;1948;53.250;10.412;2023-10-08T06:42:15;10.53;;;2.10;;
3865;SDS011;1948;53.250;10.412;2023-10-08T06:44:44;3.50;;;1.70;;
3865;SDS011;1948;53.250;10.412;2023-10-08T06:47:15;5.30;;;1.80;;
3865;SDS011;1948;53.250;10.412;2023-10-08T06:49:49;4.30;;;1.90;;
3865;SDS011;1948;53.250;10.412;2023-10-08T06:52:20;4.53;;;2.07;;
3865;SDS011;1948;53.250;10.412;2023-10-08T06:54:52;2.50;;;1.80;;
3865;SDS011;1948;53.250;10.412;2023-10-08T06:57:25;5.90;;;2.07;;
3865;SDS011;1948;53.250;10.412;2023-10-08T06:59:53;9.97;;;2.90;;
3865;SDS011;1948;53.250;10.412;2023-10-08T07:02:22;6.83;;;2.30;;
3865;SDS011;1948;53.250;10.412;2023-10-08T07:04:55;5.77;;;1.90;;
3865;SDS011;1948;53.250;10.412;2023-10-08T07:07:25;6.30;;;2.20;;
3865;SDS011;1948;53.250;10.412;2023-10-08T07:09:58;5.03;;;1.97;;
3865;SDS011;1948;53.250;10.412;2023-10-08T07:12:26;11.00;;;2.00;;
3865;SDS011;1948;53.250;10.412;2023-10-08T07:14:53;6.97;;;1.87;;
3865;SDS011;1948;53.250;10.412;2023-10-08T07:17:20;4.97;;;2.03;;
3865;SDS011;1948;53.250;10.412;2023-10-08T07:19:50;5.73;;;1.63;;
3865;SDS011;1948;53.250;10.412;2023-10-08T07:22:18;2.90;;;2.07;;
3865;SDS011;1948;53.250;10.412;2023-10-08T07:24:55;8.90;;;2.17;;
3865;SDS011;1948;53.250;10.412;2023-10-08T07:27:25;4.67;;;2.10;;
3865;SDS011;1948;53.250;10.412;2023-10-08T07:29:59;2.57;;;1.70;;
3865;SDS011;1948;53.250;10.412;2023-10-08T07:32:29;5.70;;;1.70;;
3865;SDS011;1948;53.250;10.412;2023-10-08T07:34:58;5.13;;;2.13;;
3865;SDS011;1948;53.250;10.412;2023-10-08T07:37:41;10.00;;;2.00;;
3865;SDS011;1948;53.250;10.412;2023-10-08T07:40:11;9.00;;;2.50;;
3865;SDS011;1948;53.250;10.412;2023-10-08T07:42:42;9.50;;;1.77;;
3865;SDS011;1948;53.250;10.412;2023-10-08T07:45:11;5.63;;;2.00;;
3865;SDS011;1948;53.250;10.412;2023-10-08T07:47:44;12.03;;;2.47;;
3865;SDS011;1948;53.250;10.412;2023-10-08T07:50:12;7.10;;;1.90;;
3865;SDS011;1948;53.250;10.412;2023-10-08T07:52:42;5.17;;;2.00;;
3865;SDS011;1948;53.250;10.412;2023-10-08T07:55:12;7.90;;;2.50;;
3865;SDS011;1948;53.250;10.412;2023-10-08T07:57:45;5.03;;;1.67;;
3865;SDS011;1948;53.250;10.412;2023-10-08T08:00:18;5.47;;;2.07;;
3865;SDS011;1948;53.250;10.412;2023-10-08T08:02:50;4.53;;;2.37;;
3865;SDS011;1948;53.250;10.412;2023-10-08T08:05:20;3.47;;;1.73;;
3865;SDS011;1948;53.250;10.412;2023-10-08T08:07:52;3.53;;;1.80;;
3865;SDS011;1948;53.250;10.412;2023-10-08T08:10:32;4.83;;;1.67;;
3865;SDS011;1948;53.250;10.412;2023-10-08T08:13:04;5.07;;;1.30;;
3865;SDS011;1948;53.250;10.412;2023-10-08T08:15:36;6.10;;;1.83;;
3865;SDS011;1948;53.250;10.412;2023-10-08T08:18:07;1.60;;;1.37;;
3865;SDS011;1948;53.250;10.412;2023-10-08T08:20:45;3.37;;;1.83;;
3865;SDS011;1948;53.250;10.412;2023-10-08T08:23:14;1.87;;;1.30;;
3865;SDS011;1948;53.250;10.412;2023-10-08T08:25:42;8.23;;;1.57;;
3865;SDS011;1948;53.250;10.412;2023-10-08T08:28:22;2.60;;;1.43;;
3865;SDS011;1948;53.250;10.412;2023-10-08T08:30:55;13.63;;;2.07;;
3865;SDS011;1948;53.250;10.412;2023-10-08T08:33:40;1.37;;;1.20;;
3865;SDS011;1948;53.250;10.412;2023-10-08T08:36:20;2.57;;;1.47;;
3865;SDS011;1948;53.250;10.412;2023-10-08T08:38:52;5.50;;;2.03;;
3865;SDS011;1948;53.250;10.412;2023-10-08T08:41:22;9.10;;;2.10;;
3865;SDS011;1948;53.250;10.412;2023-10-08T08:43:54;5.07;;;1.57;;
3865;SDS011;1948;53.250;10.412;2023-10-08T08:46:27;6.20;;;1.40;;
3865;SDS011;1948;53.250;10.412;2023-10-08T08:49:02;10.17;;;1.67;;
3865;SDS011;1948;53.250;10.412;2023-10-08T08:51:35;1.57;;;1.37;;
3865;SDS011;1948;53.250;10.412;2023-10-08T08:54:02;3.37;;;1.93;;
3865;SDS011;1948;53.250;10.412;2023-10-08T08:56:34;9.83;;;1.70;;
3865;SDS011;1948;53.250;10.412;2023-10-08T08:59:05;3.43;;;1.80;;
3865;SDS011;1948;53.250;10.412;2023-10-08T09:01:32;7.60;;;1.53;;
3865;SDS011;1948;53.250;10.412;2023-10-08T09:04:02;10.77;;;1.47;;
3865;SDS011;1948;53.250;10.412;2023-10-08T09:06:33;3.43;;;1.60;;
3865;SDS011;1948;53.250;10.412;2023-10-08T09:09:05;5.10;;;1.37;;
3865;SDS011;1948;53.250;10.412;2023-10-08T09:11:52;6.90;;;1.70;;
3865;SDS011;1948;53.250;10.412;2023-10-08T09:14:24;9.33;;;1.87;;
3865;SDS011;1948;53.250;10.412;2023-10-08T09:16:55;5.63;;;1.73;;
3865;SDS011;1948;53.250;10.412;2023-10-08T09:19:28;6.70;;;2.47;;
3865;SDS011;1948;53.250;10.412;2023-10-08T09:22:02;2.33;;;1.80;;
3865;SDS011;1948;53.250;10.412;2023-10-08T09:24:38;5.97;;;1.30;;
3865;SDS011;1948;53.250;10.412;2023-10-08T09:27:07;7.27;;;1.67;;
3865;SDS011;1948;53.250;10.412;2023-10-08T09:29:41;3.33;;;1.50;;
3865;SDS011;1948;53.250;10.412;2023-10-08T09:32:10;5.60;;;1.60;;
3865;SDS011;1948;53.250;10.412;2023-10-08T09:34:51;5.87;;;1.20;;
3865;SDS011;1948;53.250;10.412;2023-10-08T09:37:24;1.33;;;1.23;;
3865;SDS011;1948;53.250;10.412;2023-10-08T09:39:54;3.70;;;1.60;;
3865;SDS011;1948;53.250;10.412;2023-10-08T09:42:22;5.20;;;1.50;;
3865;SDS011;1948;53.250;10.412;2023-10-08T09:44:52;1.67;;;1.17;;
3865;SDS011;1948;53.250;10.412;2023-10-08T09:47:21;1.13;;;1.13;;
3865;SDS011;1948;53.250;10.412;2023-10-08T09:52:36;2.93;;;1.27;;
3865;SDS011;1948;53.250;10.412;2023-10-08T09:55:17;4.80;;;1.50;;
3865;SDS011;1948;53.250;10.412;2023-10-08T09:57:45;1.30;;;1.20;;
3865;SDS011;1948;53.250;10.412;2023-10-08T10:00:12;3.13;;;1.30;;
3865;SDS011;1948;53.250;10.412;2023-10-08T10:02:44;4.30;;;1.90;;
3865;SDS011;1948;53.250;10.412;2023-10-08T10:05:12;6.40;;;1.70;;
3865;SDS011;1948;53.250;10.412;2023-10-08T10:07:42;1.10;;;1.00;;
3865;SDS011;1948;53.250;10.412;2023-10-08T10:10:27;1.37;;;1.20;;
3865;SDS011;1948;53.250;10.412;2023-10-08T10:12:59;0.90;;;0.90;;
3865;SDS011;1948;53.250;10.412;2023-10-08T10:15:41;1.37;;;1.27;;
3865;SDS011;1948;53.250;10.412;2023-10-08T10:18:13;3.57;;;1.00;;
3865;SDS011;1948;53.250;10.412;2023-10-08T10:20:59;2.57;;;1.10;;
3865;SDS011;1948;53.250;10.412;2023-10-08T10:23:50;3.30;;;1.30;;
3865;SDS011;1948;53.250;10.412;2023-10-08T10:34:28;5.40;;;0.90;;
3865;SDS011;1948;53.250;10.412;2023-10-08T10:36:57;2.73;;;0.87;;
3865;SDS011;1948;53.250;10.412;2023-10-08T10:39:29;1.20;;;1.00;;
3865;SDS011;1948;53.250;10.412;2023-10-08T10:42:00;1.97;;;1.20;;
3865;SDS011;1948;53.250;10.412;2023-10-08T10:44:35;1.77;;;1.23;;
3865;SDS011;1948;53.250;10.412;2023-10-08T10:47:07;1.27;;;1.20;;
3865;SDS011;1948;53.250;10.412;2023-10-08T10:49:45;2.90;;;1.20;;
3865;SDS011;1948;53.250;10.412;2023-10-08T10:52:29;1.00;;;1.00;;
3865;SDS011;1948;53.250;10.412;2023-10-08T10:57:43;3.50;;;1.30;;
3865;SDS011;1948;53.250;10.412;2023-10-08T11:00:31;2.10;;;1.13;;
3865;SDS011;1948;53.250;10.412;2023-10-08T11:02:59;3.47;;;1.67;;
3865;SDS011;1948;53.250;10.412;2023-10-08T11:05:31;3.90;;;1.03;;
3865;SDS011;1948;53.250;10.412;2023-10-08T11:08:04;5.13;;;1.50;;
3865;SDS011;1948;53.250;10.412;2023-10-08T11:10:37;2.93;;;1.30;;
3865;SDS011;1948;53.250;10.412;2023-10-08T11:13:08;1.40;;;1.40;;
3865;SDS011;1948;53.250;10.412;2023-10-08T11:15:43;2.97;;;1.40;;
3865;SDS011;1948;53.250;10.412;2023-10-08T11:18:19;1.77;;;1.47;;
3865;SDS011;1948;53.250;10.412;2023-10-08T11:20:49;1.63;;;1.17;;
3865;SDS011;1948;53.250;10.412;2023-10-08T11:23:31;4.53;;;1.50;;
3865;SDS011;1948;53.250;10.412;2023-10-08T11:26:05;4.57;;;1.70;;
3865;SDS011;1948;53.250;10.412;2023-10-08T11:28:38;1.37;;;1.27;;
3865;SDS011;1948;53.250;10.412;2023-10-08T11:31:16;2.33;;;1.57;;
3865;SDS011;1948;53.250;10.412;2023-10-08T11:33:50;3.70;;;1.40;;
3865;SDS011;1948;53.250;10.412;2023-10-08T11:36:27;2.73;;;1.60;;
3865;SDS011;1948;53.250;10.412;2023-10-08T11:38:55;1.60;;;1.50;;
3865;SDS011;1948;53.250;10.412;2023-10-08T11:41:35;3.93;;;1.60;;
3865;SDS011;1948;53.250;10.412;2023-10-08T11:44:19;3.87;;;1.70;;
3865;SDS011;1948;53.250;10.412;2023-10-08T11:46:48;3.80;;;1.40;;
3865;SDS011;1948;53.250;10.412;2023-10-08T11:49:18;1.97;;;1.20;;
3865;SDS011;1948;53.250;10.412;2023-10-08T11:51:52;1.77;;;1.27;;
3865;SDS011;1948;53.250;10.412;2023-10-08T11:54:22;1.30;;;1.23;;
3865;SDS011;1948;53.250;10.412;2023-10-08T11:56:49;6.93;;;1.50;;
3865;SDS011;1948;53.250;10.412;2023-10-08T11:59:21;1.50;;;1.50;;
3865;SDS011;1948;53.250;10.412;2023-10-08T12:01:57;6.03;;;1.53;;
3865;SDS011;1948;53.250;10.412;2023-10-08T12:04:24;2.17;;;1.40;;
3865;SDS011;1948;53.250;10.412;2023-10-08T12:06:51;1.40;;;1.30;;
3865;SDS011;1948;53.250;10.412;2023-10-08T12:09:19;1.27;;;1.27;;
3865;SDS011;1948;53.250;10.412;2023-10-08T12:11:48;1.37;;;1.37;;
3865;SDS011;1948;53.250;10.412;2023-10-08T12:14:18;6.60;;;1.30;;
3865;SDS011;1948;53.250;10.412;2023-10-08T12:16:51;2.23;;;1.20;;
3865;SDS011;1948;53.250;10.412;2023-10-08T12:19:22;2.90;;;1.70;;
3865;SDS011;1948;53.250;10.412;2023-10-08T12:21:52;4.90;;;1.20;;
3865;SDS011;1948;53.250;10.412;2023-10-08T12:24:19;3.23;;;1.70;;
3865;SDS011;1948;53.250;10.412;2023-10-08T12:26:49;1.40;;;1.27;;
3865;SDS011;1948;53.250;10.412;2023-10-08T12:29:16;2.10;;;1.10;;
3865;SDS011;1948;53.250;10.412;2023-10-08T12:31:45;3.70;;;1.30;;
3865;SDS011;1948;53.250;10.412;2023-10-08T12:34:14;2.67;;;1.33;;
3865;SDS011;1948;53.250;10.412;2023-10-08T12:36:43;3.30;;;1.57;;
3865;SDS011;1948;53.250;10.412;2023-10-08T12:39:12;1.50;;;1.40;;
3865;SDS011;1948;53.250;10.412;2023-10-08T12:41:43;3.20;;;1.20;;
3865;SDS011;1948;53.250;10.412;2023-10-08T12:44:11;1.47;;;1.37;;
3865;SDS011;1948;53.250;10.412;2023-10-08T12:46:42;1.20;;;1.17;;
3865;SDS011;1948;53.250;10.412;2023-10-08T12:49:10;2.10;;;1.50;;
3865;SDS011;1948;53.250;10.412;2023-10-08T12:51:37;2.40;;;1.90;;
3865;SDS011;1948;53.250;10.412;2023-10-08T12:54:08;4.90;;;1.17;;
3865;SDS011;1948;53.250;10.412;2023-10-08T12:56:38;1.93;;;1.43;;
3865;SDS011;1948;53.250;10.412;2023-10-08T12:59:12;2.03;;;1.90;;
3865;SDS011;1948;53.250;10.412;2023-10-08T13:01:50;3.30;;;1.30;;
3865;SDS011;1948;53.250;10.412;2023-10-08T13:04:21;8.70;;;1.87;;
3865;SDS011;1948;53.250;10.412;2023-10-08T13:06:55;4.00;;;1.70;;
3865;SDS011;1948;53.250;10.412;2023-10-08T13:09:28;4.80;;;1.80;;
3865;SDS011;1948;53.250;10.412;2023-10-08T13:11:58;1.80;;;1.70;;
3865;SDS011;1948;53.250;10.412;2023-10-08T13:14:26;2.33;;;1.83;;
3865;SDS011;1948;53.250;10.412;2023-10-08T13:16:53;1.77;;;1.67;;
3865;SDS011;1948;53.250;10.412;2023-10-08T13:19:21;2.03;;;1.50;;
3865;SDS011;1948;53.250;10.412;2023-10-08T13:21:55;2.30;;;1.40;;
3865;SDS011;1948;53.250;10.412;2023-10-08T13:24:25;2.90;;;1.50;;
3865;SDS011;1948;53.250;10.412;2023-10-08T13:26:55;2.77;;;1.77;;
3865;SDS011;1948;53.250;10.412;2023-10-08T13:29:25;8.13;;;2.20;;
3865;SDS011;1948;53.250;10.412;2023-10-08T13:32:05;3.10;;;2.80;;
3865;SDS011;1948;53.250;10.412;2023-10-08T13:34:47;1.87;;;1.77;;
3865;SDS011;1948;53.250;10.412;2023-10-08T13:37:19;5.70;;;1.47;;
3865;SDS011;1948;53.250;10.412;2023-10-08T13:39:52;3.63;;;2.00;;
3865;SDS011;1948;53.250;10.412;2023-10-08T13:42:25;4.87;;;2.33;;
3865;SDS011;1948;53.250;10.412;2023-10-08T13:44:53;3.63;;;2.20;;
3865;SDS011;1948;53.250;10.412;2023-10-08T13:47:27;1.93;;;1.70;;
3865;SDS011;1948;53.250;10.412;2023-10-08T13:49:56;2.13;;;2.03;;
3865;SDS011;1948;53.250;10.412;2023-10-08T13:52:25;4.30;;;1.87;;
3865;SDS011;1948;53.250;10.412;2023-10-08T13:54:52;3.50;;;1.87;;
3865;SDS011;1948;53.250;10.412;2023-10-08T13:57:26;8.03;;;2.37;;
3865;SDS011;1948;53.250;10.412;2023-10-08T13:59:59;2.10;;;2.00;;
3865;SDS011;1948;53.250;10.412;2023-10-08T14:02:40;5.07;;;1.93;;
3865;SDS011;1948;53.250;10.412;2023-10-08T14:05:15;1.77;;;1.67;;
3865;SDS011;1948;53.250;10.412;2023-10-08T14:07:44;3.53;;;2.30;;
3865;SDS011;1948;53.250;10.412;2023-10-08T14:10:11;2.00;;;1.90;;
3865;SDS011;1948;53.250;10.412;2023-10-08T14:12:45;2.53;;;2.33;;
3865;SDS011;1948;53.250;10.412;2023-10-08T14:15:18;2.30;;;1.90;;
3865;SDS011;1948;53.250;10.412;2023-10-08T14:18:10;2.50;;;1.50;;
3865;SDS011;1948;53.250;10.412;2023-10-08T14:20:44;2.13;;;1.93;;
3865;SDS011;1948;53.250;10.412;2023-10-08T14:23:23;1.67;;;1.63;;
3865;SDS011;1948;53.250;10.412;2023-10-08T14:25:54;5.87;;;1.97;;
3865;SDS011;1948;53.250;10.412;2023-10-08T14:28:30;3.63;;;2.20;;
3865;SDS011;1948;53.250;10.412;2023-10-08T14:31:19;2.50;;;1.53;;
3865;SDS011;1948;53.250;10.412;2023-10-08T14:33:49;5.90;;;1.83;;
3865;SDS011;1948;53.250;10.412;2023-10-08T14:36:35;5.20;;;1.90;;
3865;SDS011;1948;53.250;10.412;2023-10-08T14:39:23;12.20;;;1.70;;
3865;SDS011;1948;53.250;10.412;2023-10-08T14:42:12;2.57;;;2.10;;
3865;SDS011;1948;53.250;10.412;2023-10-08T14:45:00;3.00;;;2.27;;
3865;SDS011;1948;53.250;10.412;2023-10-08T14:47:30;2.57;;;1.40;;
3865;SDS011;1948;53.250;10.412;2023-10-08T14:49:57;3.33;;;1.60;;
3865;SDS011;1948;53.250;10.412;2023-10-08T14:52:47;5.83;;;1.60;;
3865;SDS011;1948;53.250;10.412;2023-10-08T14:55:18;2.37;;;1.70;;
3865;SDS011;1948;53.250;10.412;2023-10-08T14:57:57;4.60;;;1.63;;
3865;SDS011;1948;53.250;10.412;2023-10-08T15:00:27;11.03;;;1.30;;
3865;SDS011;1948;53.250;10.412;2023-10-08T15:02:54;1.43;;;1.30;;
3865;SDS011;1948;53.250;10.412;2023-10-08T15:05:34;2.70;;;1.80;;
3865;SDS011;1948;53.250;10.412;2023-10-08T15:08:05;7.40;;;1.90;;
3865;SDS011;1948;53.250;10.412;2023-10-08T15:10:37;1.80;;;1.70;;
3865;SDS011;1948;53.250;10.412;2023-10-08T15:13:15;6.47;;;1.40;;
3865;SDS011;1948;53.250;10.412;2023-10-08T15:15:47;2.77;;;1.80;;
3865;SDS011;1948;53.250;10.412;2023-10-08T15:18:15;5.37;;;1.23;;
3865;SDS011;1948;53.250;10.412;2023-10-08T15:20:47;4.70;;;2.13;;
3865;SDS011;1948;53.250;10.412;2023-10-08T15:23:20;8.60;;;1.57;;
3865;SDS011;1948;53.250;10.412;2023-10-08T15:25:52;4.83;;;2.00;;
3865;SDS011;1948;53.250;10.412;2023-10-08T15:28:24;2.23;;;2.10;;
3865;SDS011;1948;53.250;10.412;2023-10-08T15:30:52;11.53;;;2.50;;
3865;SDS011;1948;53.250;10.412;2023-10-08T15:33:22;5.27;;;2.57;;
3865;SDS011;1948;53.250;10.412;2023-10-08T15:35:55;5.00;;;2.03;;
3865;SDS011;1948;53.250;10.412;2023-10-08T15:38:25;10.53;;;2.00;;
3865;SDS011;1948;53.250;10.412;2023-10-08T15:40:53;4.43;;;1.50;;
3865;SDS011;1948;53.250;10.412;2023-10-08T15:43:26;5.37;;;1.87;;
3865;SDS011;1948;53.250;10.412;2023-10-08T15:45:53;9.93;;;2.10;;
3865;SDS011;1948;53.250;10.412;2023-10-08T15:48:27;4.40;;;2.27;;